Time;durP1;ratioP1;P1;durP2;ratioP2;P2;SDS_P1;SDS_P2;PMS_P1;PMS_P2;Temp;Humidity;BMP_temperature;BMP_pressure;BME280_temperature;BME280_humidity;BME280_pressure;Samples;Min_cycle;Max_cycle;Signal;HPM_P1;HPM_P2
2022/09/18 00:00:49;;;;;;;1999.90;999.90;;;19.00;99.90;;;;;;5289441;28;20430;-73
2022/09/18 00:03:20;;;;;;;1999.90;999.90;;;19.20;99.90;;;;;;5288850;28;20059;-72
2022/09/18 00:05:51;;;;;;;1999.90;999.90;;;18.80;99.90;;;;;;5288913;28;20479;-72
2022/09/18 00:08:22;;;;;;;1999.90;999.90;;;18.80;99.90;;;;;;5288805;28;20018;-72
2022/09/18 00:10:52;;;;;;;1999.90;999.90;;;18.80;99.90;;;;;;5288915;28;20024;-72
2022/09/18 00:13:23;;;;;;;1999.90;999.90;;;18.60;99.90;;;;;;5288931;28;20039;-72
2022/09/18 00:15:55;;;;;;;1999.90;999.90;;;18.80;99.90;;;;;;5288741;28;20526;-72
2022/09/18 00:18:26;;;;;;;1999.90;999.90;;;18.70;99.90;;;;;;5270478;28;20020;-72
2022/09/18 00:21:07;;;;;;;1999.90;999.90;;;18.70;99.90;;;;;;5288848;28;20149;-72
2022/09/18 00:23:38;;;;;;;1999.90;999.90;;;19.00;99.90;;;;;;5288664;28;20467;-72
2022/09/18 00:26:10;;;;;;;1999.90;999.90;;;19.00;99.90;;;;;;5288902;28;20475;-72
2022/09/18 00:28:41;;;;;;;1999.90;999.90;;;18.90;99.90;;;;;;5288622;28;20008;-72
2022/09/18 00:31:18;;;;;;;1999.90;999.90;;;18.90;99.90;;;;;;5289003;28;20660;-72
2022/09/18 00:33:48;;;;;;;1999.90;999.90;;;18.70;99.90;;;;;;5288575;28;20051;-72
2022/09/18 00:36:20;;;;;;;1999.90;999.90;;;18.40;99.90;;;;;;5288704;28;20491;-72
2022/09/18 00:38:50;;;;;;;1999.90;999.90;;;18.80;99.90;;;;;;5288730;28;20024;-73
2022/09/18 00:41:28;;;;;;;1999.90;999.90;;;19.00;99.90;;;;;;5288820;28;20061;-72
2022/09/18 00:44:35;;;;;;;1999.90;999.90;;;18.60;99.90;;;;;;5288494;28;20135;-73
2022/09/18 00:47:09;;;;;;;1999.90;999.90;;;18.30;99.90;;;;;;5288650;28;20437;-72
2022/09/18 00:50:18;;;;;;;1999.90;999.90;;;18.60;99.90;;;;;;5289211;28;20428;-72
2022/09/18 00:52:57;;;;;;;1999.90;999.90;;;18.90;99.90;;;;;;5270534;28;20028;-72
2022/09/18 00:55:36;;;;;;;1999.90;999.90;;;18.60;99.90;;;;;;5292514;28;20470;-72
2022/09/18 00:58:08;;;;;;;1999.90;999.90;;;18.40;99.90;;;;;;5292455;28;20032;-72
2022/09/18 01:00:39;;;;;;;1999.90;999.90;;;18.60;99.90;;;;;;5292466;28;20407;-72
2022/09/18 01:03:10;;;;;;;1999.90;999.90;;;18.30;99.90;;;;;;5292296;28;20024;-72
2022/09/18 01:05:53;;;;;;;1999.90;999.90;;;18.60;99.90;;;;;;5292051;28;20028;-72
2022/09/18 01:08:41;;;;;;;1999.90;999.90;;;18.60;99.90;;;;;;5292398;28;20065;-72
2022/09/18 01:11:27;;;;;;;1999.90;999.90;;;18.70;99.90;;;;;;5292085;28;20374;-72
2022/09/18 01:14:12;;;;;;;1999.90;999.90;;;18.50;99.90;;;;;;5292133;28;20055;-72
2022/09/18 01:17:08;;;;;;;1999.90;999.90;;;18.60;99.90;;;;;;5291879;28;20028;-72
2022/09/18 01:20:16;;;;;;;1999.90;999.90;;;18.10;99.90;;;;;;5292192;28;20530;-72
2022/09/18 01:23:20;;;;;;;1999.90;999.90;;;18.20;99.90;;;;;;5291610;28;20075;-73
2022/09/18 01:26:09;;;;;;;1999.90;999.90;;;18.50;99.90;;;;;;5291753;28;20085;-72
2022/09/18 01:29:00;;;;;;;1999.90;999.90;;;18.40;99.90;;;;;;5291824;28;20103;-72
2022/09/18 01:31:38;;;;;;;1999.90;999.90;;;18.40;99.90;;;;;;5274175;28;20525;-72
2022/09/18 01:34:15;;;;;;;1999.90;999.90;;;18.10;99.90;;;;;;5291837;28;20430;-73
2022/09/18 01:36:54;;;;;;;1999.90;999.90;;;18.30;99.90;;;;;;5291517;28;20474;-73
2022/09/18 01:39:39;;;;;;;1999.90;999.90;;;18.20;99.90;;;;;;5291918;28;20051;-72
2022/09/18 01:42:11;;;;;;;1999.90;999.90;;;18.10;99.90;;;;;;5291488;28;20020;-72
2022/09/18 01:44:44;;;;;;;1999.90;999.90;;;18.10;99.90;;;;;;5291185;28;20126;-72
2022/09/18 01:47:18;;;;;;;1999.90;999.90;;;18.20;99.90;;;;;;5291290;28;20077;-72
2022/09/18 01:49:52;;;;;;;1999.90;999.90;;;18.30;99.90;;;;;;5291128;28;20072;-72
2022/09/18 01:52:37;;;;;;;1999.90;999.90;;;18.30;99.90;;;;;;5273198;28;20020;-72
2022/09/18 01:55:15;;;;;;;1999.90;999.90;;;18.20;99.90;;;;;;5273364;28;20023;-72
2022/09/18 01:58:00;;;;;;;1999.90;999.90;;;18.20;99.90;;;;;;5273457;28;20024;-72
2022/09/18 02:00:31;;;;;;;1999.90;999.90;;;18.20;99.90;;;;;;5291436;28;20024;-72
2022/09/18 02:03:12;;;;;;;1999.90;999.90;;;18.40;99.90;;;;;;5291568;28;20036;-72
2022/09/18 02:05:47;;;;;;;1999.90;999.90;;;18.60;99.90;;;;;;5291485;28;20028;-72
2022/09/18 02:08:30;;;;;;;1999.90;999.90;;;18.20;99.90;;;;;;5291256;28;20028;-73
2022/09/18 02:11:05;;;;;;;1999.90;999.90;;;18.40;99.90;;;;;;5291275;28;20028;-72
2022/09/18 02:13:58;;;;;;;1999.90;999.90;;;18.20;99.90;;;;;;5290695;28;20076;-72
2022/09/18 02:16:40;;;;;;;1999.90;999.90;;;18.50;99.90;;;;;;5272640;28;20478;-73
2022/09/18 02:19:50;;;;;;;1999.90;999.90;;;18.30;99.90;;;;;;5290936;28;20031;-72
2022/09/18 02:22:23;;;;;;;1999.90;999.90;;;18.10;99.90;;;;;;5185029;28;20469;-72
2022/09/18 02:24:56;;;;;;;1999.90;999.90;;;18.50;99.90;;;;;;5277592;28;20386;-73
2022/09/18 02:27:29;;;;;;;1999.90;999.90;;;18.50;99.90;;;;;;5290094;28;20042;-72
2022/09/18 02:30:02;;;;;;;1999.90;999.90;;;18.50;99.90;;;;;;5290776;28;20008;-72
2022/09/18 02:32:36;;;;;;;1999.90;999.90;;;18.30;99.90;;;;;;5290789;28;20038;-73
2022/09/18 02:35:09;;;;;;;1999.90;999.90;;;18.20;99.90;;;;;;5290528;28;20073;-72
2022/09/18 02:37:48;;;;;;;1999.90;999.90;;;18.10;99.90;;;;;;5290374;28;20027;-72
2022/09/18 02:40:53;;;;;;;1999.90;999.90;;;18.20;99.90;;;;;;5290631;28;20023;-72
2022/09/18 02:43:37;;;;;;;1999.90;999.90;;;18.30;99.90;;;;;;5289781;28;20046;-72
2022/09/18 02:46:17;;;;;;;1999.90;999.90;;;18.40;99.90;;;;;;5290284;28;20401;-72
2022/09/18 02:48:58;;;;;;;1999.90;999.90;;;18.40;99.90;;;;;;5290391;28;20382;-72
2022/09/18 02:51:55;;;;;;;1999.90;999.90;;;18.60;99.90;;;;;;5290317;28;20026;-72
2022/09/18 02:54:41;;;;;;;1999.90;999.90;;;18.40;99.90;;;;;;5290033;28;20057;-72
2022/09/18 02:57:21;;;;;;;1999.90;999.90;;;18.40;99.90;;;;;;5289999;28;20020;-72
2022/09/18 02:59:54;;;;;;;1999.90;999.90;;;18.30;99.90;;;;;;5289952;28;20030;-72
2022/09/18 03:02:25;;;;;;;1999.90;999.90;;;18.40;99.90;;;;;;5289826;28;20085;-73
2022/09/18 03:04:56;;;;;;;1999.90;999.90;;;18.50;99.90;;;;;;5289755;28;20028;-72
2022/09/18 03:07:27;;;;;;;1999.90;999.90;;;18.50;99.90;;;;;;5289849;28;20103;-72
2022/09/18 03:09:58;;;;;;;1999.90;999.90;;;18.50;99.90;;;;;;5289880;28;20374;-73
2022/09/18 03:12:28;;;;;;;1999.90;999.90;;;18.50;99.90;;;;;;5289389;28;20024;-72
2022/09/18 03:14:59;;;;;;;1999.90;999.90;;;18.40;99.90;;;;;;5289677;28;20054;-72
2022/09/18 03:17:30;;;;;;;1999.90;999.90;;;18.20;99.90;;;;;;5289783;28;20035;-72
2022/09/18 03:20:01;;;;;;;1999.90;999.90;;;18.20;99.90;;;;;;5289899;28;20494;-72
2022/09/18 03:22:32;;;;;;;1999.90;999.90;;;18.30;99.90;;;;;;5271464;28;20143;-72
2022/09/18 03:25:03;;;;;;;1999.90;999.90;;;18.60;99.90;;;;;;5289188;28;20035;-73
2022/09/18 03:27:34;;;;;;;1999.90;999.90;;;18.90;99.90;;;;;;5271521;28;20495;-73
2022/09/18 03:30:06;;;;;;;1999.90;999.90;;;19.00;99.90;;;;;;5289495;28;20030;-72
2022/09/18 03:32:36;;;;;;;1999.90;999.90;;;18.90;99.90;;;;;;5289746;28;20023;-73
2022/09/18 03:35:08;;;;;;;1999.90;999.90;;;19.00;99.90;;;;;;5289316;28;20020;-72
2022/09/18 03:37:39;;;;;;;1999.90;999.90;;;19.10;99.90;;;;;;5289555;28;20020;-72
2022/09/18 03:40:09;;;;;;;1999.90;999.90;;;19.00;99.90;;;;;;5289689;28;20092;-72
2022/09/18 03:42:43;;;;;;;1999.90;999.90;;;18.90;99.90;;;;;;5289701;28;20050;-73
2022/09/18 03:45:14;;;;;;;1999.90;999.90;;;18.80;99.90;;;;;;5289342;28;20043;-72
2022/09/18 03:47:45;;;;;;;1999.90;999.90;;;18.60;99.90;;;;;;5289371;28;20027;-72
2022/09/18 03:50:16;;;;;;;1999.90;999.90;;;18.80;99.90;;;;;;5289194;28;20035;-73
2022/09/18 03:52:48;;;;;;;1999.90;999.90;;;18.60;99.90;;;;;;5289348;28;20011;-73
2022/09/18 03:55:20;;;;;;;1999.90;999.90;;;18.40;99.90;;;;;;5289153;28;20032;-72
2022/09/18 03:57:50;;;;;;;1999.90;999.90;;;18.20;99.90;;;;;;5289238;28;20417;-72
2022/09/18 04:00:21;;;;;;;1999.90;999.90;;;18.20;99.90;;;;;;5288934;28;20034;-72
2022/09/18 04:02:52;;;;;;;1999.90;999.90;;;18.20;99.90;;;;;;5289085;28;20027;-72
2022/09/18 04:05:23;;;;;;;1999.90;999.90;;;18.40;99.90;;;;;;5288964;28;20035;-73
2022/09/18 04:07:54;;;;;;;1999.90;999.90;;;18.50;99.90;;;;;;5289092;28;20046;-72
2022/09/18 04:10:26;;;;;;;1999.90;999.90;;;18.60;99.90;;;;;;5288988;28;20031;-72
2022/09/18 04:12:56;;;;;;;1999.90;999.90;;;18.80;99.90;;;;;;5288760;28;20098;-72
2022/09/18 04:15:27;;;;;;;1999.90;999.90;;;18.90;99.90;;;;;;5288708;28;20550;-72
2022/09/18 04:17:58;;;;;;;1999.90;999.90;;;18.80;99.90;;;;;;5288901;28;20024;-73
2022/09/18 04:20:30;;;;;;;1999.90;999.90;;;18.90;99.90;;;;;;5289006;28;20134;-72
2022/09/18 04:23:01;;;;;;;1999.90;999.90;;;18.80;99.90;;;;;;5288702;28;20475;-73
2022/09/18 04:25:32;;;;;;;1999.90;999.90;;;18.80;99.90;;;;;;5290974;28;20073;-72
2022/09/18 04:28:02;;;;;;;1999.90;999.90;;;18.60;99.90;;;;;;5293358;28;20035;-73
2022/09/18 04:30:33;;;;;;;1999.90;999.90;;;18.70;99.90;;;;;;5293307;28;20027;-72
2022/09/18 04:33:04;;;;;;;1999.90;999.90;;;18.70;99.90;;;;;;5293170;28;20478;-72
2022/09/18 04:35:35;;;;;;;1999.90;999.90;;;19.00;99.90;;;;;;5293237;28;20027;-73
2022/09/18 04:38:07;;;;;;;1999.90;999.90;;;19.00;99.90;;;;;;5293198;28;20630;-72
2022/09/18 04:40:39;;;;;;;1999.90;999.90;;;19.00;99.90;;;;;;5292932;28;20024;-72
2022/09/18 04:43:10;;;;;;;1999.90;999.90;;;19.30;99.90;;;;;;5292115;28;20042;-72
2022/09/18 04:45:44;;;;;;;1999.90;999.90;;;19.50;99.90;;;;;;5292597;28;20547;-73
2022/09/18 04:48:16;;;;;;;1999.90;999.90;;;19.40;99.90;;;;;;5292688;28;20132;-73
2022/09/18 04:50:48;;;;;;;1999.90;999.90;;;19.50;99.90;;;;;;5292920;28;20049;-72
2022/09/18 04:53:18;;;;;;;1999.90;999.90;;;19.40;99.90;;;;;;5292778;28;20032;-72
2022/09/18 04:55:49;;;;;;;1999.90;999.90;;;19.60;99.90;;;;;;5292503;28;20027;-72
2022/09/18 04:58:20;;;;;;;1999.90;999.90;;;20.00;99.90;;;;;;5292503;28;20094;-73
2022/09/18 05:00:51;;;;;;;1999.90;999.90;;;20.20;99.90;;;;;;5292478;28;20024;-73
2022/09/18 05:03:22;;;;;;;1999.90;999.90;;;20.10;99.90;;;;;;5292379;28;20098;-73
2022/09/18 05:05:53;;;;;;;1999.90;999.90;;;20.40;99.90;;;;;;5292110;28;20031;-72
2022/09/18 05:08:24;;;;;;;1999.90;999.90;;;20.10;99.90;;;;;;5292106;28;20498;-73
2022/09/18 05:10:55;;;;;;;1999.90;999.90;;;20.20;99.90;;;;;;5292264;28;20053;-73
2022/09/18 05:13:26;;;;;;;1999.90;999.90;;;20.10;99.90;;;;;;5291920;28;20089;-73
2022/09/18 05:15:57;;;;;;;1999.90;999.90;;;20.30;99.90;;;;;;5291878;28;20114;-72
2022/09/18 05:18:28;;;;;;;1999.90;999.90;;;20.60;99.90;;;;;;5292019;28;20031;-73
2022/09/18 05:21:03;;;;;;;1999.90;999.90;;;21.00;99.90;;;;;;5291882;28;20495;-73
2022/09/18 05:23:34;;;;;;;1999.90;999.90;;;21.30;99.90;;;;;;5291826;28;20389;-73
2022/09/18 05:26:05;;;;;;;1999.90;999.90;;;21.30;99.90;;;;;;5291743;28;20019;-73
2022/09/18 05:28:37;;;;;;;1999.90;999.90;;;21.50;99.90;;;;;;5291677;28;20027;-73
2022/09/18 05:31:08;;;;;;;1999.90;999.90;;;21.70;99.90;;;;;;5291615;28;20028;-73
2022/09/18 05:33:40;;;;;;;1999.90;999.90;;;22.00;99.90;;;;;;5291699;28;20031;-72
2022/09/18 05:36:11;;;;;;;1999.90;999.90;;;22.00;99.90;;;;;;5291339;28;20494;-73
2022/09/18 05:38:42;;;;;;;1999.90;999.90;;;22.20;99.90;;;;;;5291485;28;20023;-73
2022/09/18 05:41:12;;;;;;;1999.90;999.90;;;22.50;99.90;;;;;;5291503;28;20027;-73
2022/09/18 05:43:43;;;;;;;1999.90;999.90;;;22.80;99.90;;;;;;5291355;28;20053;-73
2022/09/18 05:46:14;;;;;;;1999.90;999.90;;;22.90;99.90;;;;;;5291565;28;20023;-73
2022/09/18 05:48:48;;;;;;;1999.90;999.90;;;23.00;99.90;;;;;;5291145;28;20019;-73
2022/09/18 05:51:19;;;;;;;1999.90;999.90;;;23.10;99.90;;;;;;5291025;28;20023;-73
2022/09/18 05:53:49;;;;;;;1999.90;999.90;;;23.10;99.90;;;;;;5291352;28;20153;-73
2022/09/18 05:56:20;;;;;;;1999.90;999.90;;;23.00;99.90;;;;;;5291333;28;20111;-73
2022/09/18 05:58:54;;;;;;;1999.90;999.90;;;23.50;99.90;;;;;;5291570;28;20034;-73
2022/09/18 06:01:25;;;;;;;1999.90;999.90;;;23.60;99.90;;;;;;5291390;28;20108;-73
2022/09/18 06:03:56;;;;;;;1999.90;999.90;;;23.50;99.90;;;;;;5290344;28;20071;-73
2022/09/18 06:06:28;;;;;;;1999.90;999.90;;;23.80;99.90;;;;;;5290685;28;20028;-73
2022/09/18 06:08:59;;;;;;;1999.90;999.90;;;24.00;99.90;;;;;;5272488;28;20035;-73
2022/09/18 06:11:29;;;;;;;1999.90;999.90;;;23.90;99.90;;;;;;5290726;28;20368;-73
2022/09/18 06:14:00;;;;;;;1999.90;999.90;;;24.30;99.90;;;;;;5290162;28;20128;-72
2022/09/18 06:16:31;;;;;;;1999.90;999.90;;;24.40;99.90;;;;;;5290956;28;20028;-73
2022/09/18 06:19:02;;;;;;;1999.90;999.90;;;24.50;99.90;;;;;;5290635;28;20055;-73
2022/09/18 06:21:33;;;;;;;1999.90;999.90;;;24.70;99.90;;;;;;5290487;28;20470;-73
2022/09/18 06:24:04;;;;;;;1999.90;999.90;;;25.20;99.90;;;;;;5290355;28;20039;-73
2022/09/18 06:26:34;;;;;;;1999.90;999.90;;;25.40;99.90;;;;;;5290283;28;20022;-73
2022/09/18 06:29:05;;;;;;;1999.90;999.90;;;25.70;99.90;;;;;;5290231;28;20102;-73
2022/09/18 06:31:36;;;;;;;1999.90;999.90;;;25.40;99.90;;;;;;5290497;28;20027;-72
2022/09/18 06:34:07;;;;;;;1999.90;999.90;;;25.80;99.90;;;;;;5290162;28;20089;-73
2022/09/18 06:36:37;;;;;;;1999.90;999.90;;;25.90;99.90;;;;;;5290203;28;20019;-73
2022/09/18 06:39:08;;;;;;;1999.90;999.90;;;26.20;99.90;;;;;;5290042;28;20028;-73
2022/09/18 06:41:39;;;;;;;1999.90;999.90;;;26.40;99.90;;;;;;5289846;28;20022;-73
2022/09/18 06:44:10;;;;;;;1999.90;999.90;;;26.30;99.90;;;;;;5289908;28;20039;-73
2022/09/18 06:46:41;;;;;;;1999.90;999.90;;;26.20;99.90;;;;;;5290013;28;20027;-73
2022/09/18 06:49:12;;;;;;;1999.90;999.90;;;26.00;99.90;;;;;;5289244;28;20100;-73
2022/09/18 06:51:44;;;;;;;1999.90;999.90;;;26.00;99.90;;;;;;5290049;28;20463;-73
2022/09/18 06:54:15;;;;;;;1999.90;999.90;;;25.80;99.90;;;;;;5289883;28;20031;-72
2022/09/18 06:56:46;;;;;;;1999.90;999.90;;;25.80;99.90;;;;;;5289718;28;20034;-73
2022/09/18 06:59:17;;;;;;;1999.90;999.90;;;25.70;99.90;;;;;;5289766;28;20020;-73
2022/09/18 07:01:48;;;;;;;1999.90;999.90;;;25.90;99.90;;;;;;5289735;28;20019;-73
2022/09/18 07:04:19;;;;;;;1999.90;999.90;;;26.10;99.90;;;;;;5289574;28;20039;-73
2022/09/18 07:06:49;;;;;;;1999.90;999.90;;;26.20;99.90;;;;;;5289824;28;20024;-72
2022/09/18 07:09:20;;;;;;;1999.90;999.90;;;26.10;99.90;;;;;;5289616;28;20011;-73
2022/09/18 07:11:51;;;;;;;1999.90;999.90;;;26.30;99.90;;;;;;5289612;28;20024;-73
2022/09/18 07:14:22;;;;;;;1999.90;999.90;;;26.40;99.90;;;;;;5288995;28;20040;-73
2022/09/18 07:16:52;;;;;;;1999.90;999.90;;;26.70;99.90;;;;;;5289689;28;20044;-73
2022/09/18 07:19:23;;;;;;;1999.90;999.90;;;26.80;99.90;;;;;;5287132;28;20032;-73
2022/09/18 07:21:54;;;;;;;1999.90;999.90;;;27.00;99.90;;;;;;5288336;28;20023;-74
2022/09/18 07:24:25;;;;;;;1999.90;999.90;;;26.80;99.90;;;;;;5288647;28;20051;-73
2022/09/18 07:26:57;;;;;;;1999.90;999.90;;;26.70;99.90;;;;;;5289219;28;20082;-73
2022/09/18 07:29:28;;;;;;;1999.90;999.90;;;26.70;99.90;;;;;;5289697;28;20114;-74
2022/09/18 07:31:59;;;;;;;1999.90;999.90;;;26.90;99.90;;;;;;5289984;28;20427;-74
2022/09/18 07:34:30;;;;;;;1999.90;999.90;;;26.70;99.90;;;;;;5289664;28;20031;-74
2022/09/18 07:37:01;;;;;;;1999.90;999.90;;;26.80;99.90;;;;;;5289451;28;20020;-74
2022/09/18 07:39:31;;;;;;;1999.90;999.90;;;26.90;99.90;;;;;;5289627;28;20063;-74
2022/09/18 07:42:02;;;;;;;1999.90;999.90;;;26.70;99.90;;;;;;5289611;28;20019;-74
2022/09/18 07:44:33;;;;;;;1999.90;999.90;;;27.30;99.90;;;;;;5289402;28;20104;-74
2022/09/18 07:47:04;;;;;;;1999.90;999.90;;;27.40;99.90;;;;;;5288847;28;20019;-74
2022/09/18 07:49:37;;;;;;;1999.90;999.90;;;27.50;99.90;;;;;;5288854;28;20451;-74
2022/09/18 07:52:08;;;;;;;1999.90;999.90;;;27.40;99.90;;;;;;5289127;28;20112;-74
2022/09/18 07:54:39;;;;;;;1999.90;999.90;;;27.10;99.90;;;;;;5289274;28;20480;-74
2022/09/18 07:57:09;;;;;;;1999.90;999.90;;;27.30;99.90;;;;;;5289036;28;20026;-74
2022/09/18 07:59:40;;;;;;;1999.90;999.90;;;27.50;99.90;;;;;;5288968;28;20103;-74
2022/09/18 08:02:11;;;;;;;1999.90;999.90;;;27.30;99.90;;;;;;5289078;28;20015;-74
2022/09/18 08:04:42;;;;;;;1999.90;999.90;;;27.30;99.90;;;;;;5288904;28;20044;-74
2022/09/18 08:07:13;;;;;;;1999.90;999.90;;;27.40;99.90;;;;;;5289065;28;20479;-73
2022/09/18 08:09:44;;;;;;;1999.90;999.90;;;26.30;99.90;;;;;;5288856;28;20028;-73
2022/09/18 08:12:15;;;;;;;1999.90;999.90;;;25.50;99.90;;;;;;5304735;28;20024;-73
2022/09/18 08:14:45;;;;;;;1999.90;999.90;;;25.20;99.90;;;;;;5288780;28;20078;-73
2022/09/18 08:17:16;;;;;;;1999.90;999.90;;;25.00;99.90;;;;;;5288806;28;20487;-73
2022/09/18 08:19:47;;;;;;;1999.90;999.90;;;24.80;99.90;;;;;;5288758;28;20461;-73
2022/09/18 08:22:18;;;;;;;1999.90;999.90;;;24.70;99.90;;;;;;5288436;28;20359;-73
2022/09/18 08:24:48;;;;;;;1999.90;999.90;;;24.70;99.90;;;;;;5288338;28;20478;-73
2022/09/18 08:27:19;;;;;;;1999.90;999.90;;;24.40;99.90;;;;;;5288683;28;20072;-73
2022/09/18 08:29:50;;;;;;;1999.90;999.90;;;24.20;99.90;;;;;;5288498;28;20047;-73
2022/09/18 08:32:21;;;;;;;1999.90;999.90;;;24.00;99.90;;;;;;5288335;28;20020;-73
2022/09/18 08:34:51;;;;;;;1999.90;999.90;;;23.80;99.90;;;;;;5288603;28;20028;-73
2022/09/18 08:37:22;;;;;;;1999.90;999.90;;;23.90;99.90;;;;;;5288753;28;20023;-73
2022/09/18 08:39:53;;;;;;;1999.90;999.90;;;24.00;99.90;;;;;;5288491;28;20427;-73
2022/09/18 08:42:52;;;;;;;1999.90;999.90;;;24.10;99.90;;;;;;5288811;28;20024;-73
2022/09/18 08:45:37;;;;;;;1999.90;999.90;;;24.20;99.90;;;;;;5288438;28;20051;-73
2022/09/18 08:48:18;;;;;;;1999.90;999.90;;;24.20;99.90;;;;;;5288377;28;20026;-73
2022/09/18 08:50:59;;;;;;;1999.90;999.90;;;24.00;99.90;;;;;;5288243;28;20028;-73
2022/09/18 08:53:39;;;;;;;1999.90;999.90;;;23.80;99.90;;;;;;5288392;28;20440;-73
2022/09/18 08:56:20;;;;;;;1999.90;999.90;;;23.70;99.90;;;;;;5288228;28;20088;-73
2022/09/18 08:58:56;;;;;;;1999.90;999.90;;;23.50;99.90;;;;;;5269984;28;20031;-73
2022/09/18 09:01:39;;;;;;;1999.90;999.90;;;23.00;99.90;;;;;;5288534;28;20528;-73
2022/09/18 09:04:21;;;;;;;1999.90;999.90;;;23.10;99.90;;;;;;5288136;28;20036;-73
2022/09/18 09:07:01;;;;;;;1999.90;999.90;;;23.00;99.90;;;;;;5288320;28;20023;-73
2022/09/18 09:09:32;;;;;;;;;;;23.10;99.90;;;;;;5288637;28;20378;-73
2022/09/18 09:12:09;;;;;;;1999.90;999.90;;;23.10;99.90;;;;;;5272749;28;20371;-73
2022/09/18 09:15:00;;;;;;;1999.90;999.90;;;22.80;99.90;;;;;;5291674;28;20051;-73
2022/09/18 09:17:33;;;;;;;1999.90;999.90;;;22.70;99.90;;;;;;5250261;28;20143;-73
2022/09/18 09:20:21;;;;;;;1999.90;999.90;;;22.60;99.90;;;;;;5273605;28;20375;-72
2022/09/18 09:23:00;;;;;;;1999.90;999.90;;;22.50;99.90;;;;;;5291714;28;20034;-72
2022/09/18 09:25:38;;;;;;;1999.90;999.90;;;22.40;99.90;;;;;;5291846;28;20047;-73
2022/09/18 09:28:25;;;;;;;1999.90;999.90;;;22.30;99.90;;;;;;5291705;28;20051;-73
2022/09/18 09:30:59;;;;;;;1999.90;999.90;;;22.10;99.90;;;;;;5291753;28;20066;-73
2022/09/18 09:33:45;;;;;;;1999.90;999.90;;;22.00;99.90;;;;;;5291490;28;20026;-73
2022/09/18 09:36:19;;;;;;;1999.90;999.90;;;21.90;99.90;;;;;;5273584;28;20141;-73
2022/09/18 09:38:58;;;;;;;1999.90;999.90;;;21.70;99.90;;;;;;5291575;28;20374;-73
2022/09/18 09:41:48;;;;;;;1999.90;999.90;;;21.10;99.90;;;;;;5273440;28;20061;-73
2022/09/18 09:44:24;;;;;;;1999.90;999.90;;;21.10;99.90;;;;;;5291133;28;20044;-74
2022/09/18 09:47:01;;;;;;;1999.90;999.90;;;20.80;99.90;;;;;;5292169;28;20031;-74
2022/09/18 09:49:43;;;;;;;1999.90;999.90;;;20.50;99.90;;;;;;5292695;28;20217;-74
2022/09/18 09:52:25;;;;;;;1999.90;999.90;;;20.10;99.90;;;;;;5274403;28;20024;-73
2022/09/18 09:55:13;;;;;;;1999.90;999.90;;;19.70;99.90;;;;;;5308024;27;20038;-73
2022/09/18 09:58:10;;;;;;;1999.90;999.90;;;19.10;99.90;;;;;;5292023;28;20028;-75
2022/09/18 10:01:14;;;;;;;1999.90;999.90;;;19.30;99.90;;;;;;5291888;28;20367;-72
2022/09/18 10:24:45;;;;;;;1999.90;999.90;;;19.40;99.90;;;;;;5286877;27;20414;-73
2022/09/18 10:27:17;;;;;;;1999.90;999.90;;;20.00;99.90;;;;;;5285824;28;20015;-73
2022/09/18 10:29:51;;;;;;;1999.90;999.90;;;20.30;99.90;;;;;;5286499;28;20028;-73
2022/09/18 10:32:37;;;;;;;1999.90;999.90;;;20.20;99.90;;;;;;5273338;28;20042;-73
2022/09/18 10:35:42;;;;;;;1999.90;999.90;;;20.30;99.90;;;;;;5265254;28;20099;-72
2022/09/18 10:38:31;;;;;;;1999.90;999.90;;;20.20;99.90;;;;;;5293728;28;20042;-72
2022/09/18 10:41:26;;;;;;;1999.90;999.90;;;20.00;99.90;;;;;;5307676;28;20027;-72
2022/09/18 10:44:18;;;;;;;1999.90;999.90;;;20.20;99.90;;;;;;5307607;27;20482;-73
2022/09/18 10:47:04;;;;;;;1999.90;999.90;;;20.00;99.90;;;;;;5298906;27;20027;-73
2022/09/18 10:49:56;;;;;;;1999.90;999.90;;;20.30;99.90;;;;;;5264481;28;20454;-75
2022/09/18 10:52:43;;;;;;;1999.90;999.90;;;20.50;99.90;;;;;;5264170;28;20036;-76
2022/09/18 10:55:30;;;;;;;1999.90;999.90;;;20.60;99.90;;;;;;5263399;28;20066;-75
2022/09/18 10:58:07;;;;;;;1999.90;999.90;;;21.20;99.90;;;;;;5263047;28;20029;-74
2022/09/18 11:00:52;;;;;;;1999.90;999.90;;;21.30;99.90;;;;;;5264324;28;20570;-75
2022/09/18 11:03:40;;;;;;;1999.90;999.90;;;21.00;99.90;;;;;;5264306;28;20028;-75
2022/09/18 11:06:24;;;;;;;1999.90;999.90;;;21.20;99.90;;;;;;5264473;28;20035;-75
2022/09/18 11:09:07;;;;;;;1999.90;999.90;;;21.90;99.90;;;;;;5264389;28;20081;-76
2022/09/18 11:11:49;;;;;;;1999.90;999.90;;;21.30;99.90;;;;;;5264662;28;20058;-77
2022/09/18 11:14:25;;;;;;;1999.90;999.90;;;21.10;99.90;;;;;;5265330;28;20468;-73
2022/09/18 11:16:59;;;;;;;1999.90;999.90;;;21.20;99.90;;;;;;5265216;28;20502;-76
2022/09/18 11:19:37;;;;;;;1999.90;999.90;;;21.10;99.90;;;;;;5270213;28;20021;-74
2022/09/18 11:22:41;;;;;;;1999.90;999.90;;;21.10;99.90;;;;;;5280172;27;20048;-74
2022/09/18 11:25:20;;;;;;;1999.90;999.90;;;21.80;99.90;;;;;;5251363;28;20090;-74
2022/09/18 11:27:54;;;;;;;1999.90;999.90;;;21.30;99.90;;;;;;5259233;28;20024;-75
2022/09/18 11:30:30;;;;;;;1999.90;999.90;;;21.20;99.90;;;;;;5270579;28;20106;-73
2022/09/18 11:33:12;;;;;;;1999.90;999.90;;;21.50;99.90;;;;;;5269603;28;20028;-74
2022/09/18 11:35:50;;;;;;;1999.90;999.90;;;21.60;99.90;;;;;;5271331;28;20042;-74
2022/09/18 11:38:21;;;;;;;1999.90;999.90;;;21.60;99.90;;;;;;5270330;28;20074;-74
2022/09/18 11:40:56;;;;;;;1999.90;999.90;;;21.10;99.90;;;;;;5271436;28;20024;-75
2022/09/18 11:43:35;;;;;;;1999.90;999.90;;;21.40;99.90;;;;;;5772054;22;20014;-73
2022/09/18 11:46:28;;;;;;;1999.90;999.90;;;21.60;99.90;;;;;;5184662;28;20132;-74
2022/09/18 11:49:29;;;;;;;1999.90;999.90;;;22.40;99.90;;;;;;5188689;28;20382;-75
2022/09/18 11:52:17;;;;;;;1999.90;999.90;;;23.00;99.90;;;;;;5187831;28;20064;-75
2022/09/18 11:54:57;;;;;;;1999.90;999.90;;;23.20;99.90;;;;;;5187831;28;20093;-76
2022/09/18 11:57:48;;;;;;;;;;;23.30;99.90;;;;;;5187993;28;20054;-75
2022/09/18 12:00:22;;;;;;;1999.90;999.90;;;23.80;99.90;;;;;;5144389;28;19989;-75
2022/09/18 12:03:16;;;;;;;1999.90;999.90;;;23.60;99.90;;;;;;5168600;28;20034;-75
2022/09/18 12:06:02;;;;;;;1999.90;999.90;;;23.00;99.90;;;;;;5188464;28;20368;-75
2022/09/18 12:09:10;;;;;;;1999.90;999.90;;;22.80;99.90;;;;;;5188136;28;20022;-76
2022/09/18 12:11:46;;;;;;;1999.90;999.90;;;23.10;99.90;;;;;;5182593;28;20030;-76
2022/09/18 12:15:15;;;;;;;1999.90;999.90;;;22.70;99.90;;;;;;5182050;28;20128;-76
2022/09/18 12:18:00;;;;;;;1999.90;999.90;;;23.10;99.90;;;;;;5144609;28;20133;-76
2022/09/18 12:20:46;;;;;;;1999.90;999.90;;;23.20;99.90;;;;;;5184524;28;20104;-76
2022/09/18 12:23:24;;;;;;;1999.90;999.90;;;23.90;99.90;;;;;;5186623;28;20421;-76
2022/09/18 12:25:58;;;;;;;1999.90;999.90;;;24.60;99.90;;;;;;5188487;28;20036;-76
2022/09/18 12:29:06;;;;;;;1999.90;999.90;;;24.60;99.90;;;;;;5188284;28;20029;-76
2022/09/18 12:31:46;;;;;;;1999.90;999.90;;;24.10;99.90;;;;;;5188031;28;20045;-76
2022/09/18 12:34:34;;;;;;;1999.90;999.90;;;23.70;99.90;;;;;;5187512;28;20058;-76
2022/09/18 12:37:42;;;;;;;1999.90;999.90;;;24.00;99.90;;;;;;5187242;28;20033;-76
2022/09/18 12:40:24;;;;;;;1999.90;999.90;;;24.50;99.90;;;;;;5172809;28;20072;-76
2022/09/18 12:42:55;;;;;;;1999.90;999.90;;;24.40;99.90;;;;;;5185673;28;20053;-76
2022/09/18 12:45:35;;;;;;;1999.90;999.90;;;24.00;99.90;;;;;;5185666;28;20092;-76
2022/09/18 12:48:15;;;;;;;;;;;24.50;99.90;;;;;;5186451;28;20032;-77
2022/09/18 12:51:10;;;;;;;1999.90;999.90;;;24.70;99.90;;;;;;5187495;28;20288;-76
2022/09/18 12:54:05;;;;;;;1999.90;999.90;;;24.10;99.90;;;;;;5187646;28;20038;-76
2022/09/18 12:56:45;;;;;;;1999.90;999.90;;;23.70;99.90;;;;;;5188421;28;20022;-76
2022/09/18 12:59:30;;;;;;;1999.90;999.90;;;24.10;99.90;;;;;;5187799;28;20057;-76
2022/09/18 13:02:16;;;;;;;1999.90;999.90;;;24.10;99.90;;;;;;5187729;28;20496;-76
2022/09/18 13:05:14;;;;;;;1999.90;999.90;;;24.50;99.90;;;;;;5187644;28;20030;-76
2022/09/18 13:08:11;;;;;;;1999.90;999.90;;;24.80;99.90;;;;;;5187615;28;20493;-76
2022/09/18 13:10:45;;;;;;;1999.90;999.90;;;24.00;99.90;;;;;;5186305;28;20033;-76